KJAS/JAS METAR and TAF weather

Enter ICAO airport designator
Station Type Date Time Source
KJAS METAR 2019/04/24 15:55 UTC NOAA

KJAS 241555Z AUTO 13007KT 10SM SCT017 SCT021 24/20 A2996 RMK AO2 T02370197


Station Type Date Time Source
KJAS Decoded METAR 2019/04/24 15:55 UTC NOAA

Jasper, Jasper County-Bell Field Airport, TX, United States (KJAS) 30-53-08N 094-02-05W
Apr 24, 2019 - 11:55 AM EDT / 2019.04.24 1555 UTC
Wind: from the SE (130 degrees) at 8 MPH (7 KT):0
Visibility: 10 mile(s):0
Sky conditions: partly cloudy
Temperature: 74.7 F (23.7 C)
Dew Point: 67.5 F (19.7 C)
Relative Humidity: 78%
Pressure (altimeter): 29.96 in. Hg (1014 hPa)
ob: KJAS 241555Z AUTO 13007KT 10SM SCT017 SCT021 24/20 A2996 RMK AO2 T02370197
cycle: 16

Station Type Date Time Source
KJAS TAF UTC NOAA

Error!

Example: see airport list